Terminal Aerodrome Forecast
Issued by NWS

Home | Current Version | Previous Version | Text Only | Print | Product List | Glossary On
Versions: 1 2 3 4 5 6 7 8 9 10 11 12 13 14 15 16 17 18 19 20 21 22 23 24 25 26 27 28 29
000
FTUS43 KDMX 210708 AAA
TAFMCW
TAF AMD
KMCW 210708Z 2107/2206 15006KT 6SM BR SCT005 BKN120
      TEMPO 2107/2110 3SM BR OVC003
     FM211000 15007KT 5SM BR VCTS SCT006 BKN025CB OVC100
      TEMPO 2110/2113 VRB15G25KT 2SM TSRA BR BKN005CB OVC015
     FM211400 20011KT P6SM SCT025 OVC060=

USA.gov is the U.S. government's official web portal to all federal, state and local government web resources and services.